sensor_id;sensor_type;location;lat;lon;timestamp;P1;durP1;ratioP1;P2;durP2;ratioP2
12433;SDS011;6281;49.038;8.372;2023-08-24T00:00:22;7.07;;;5.90;;
12433;SDS011;6281;49.038;8.372;2023-08-24T00:02:49;6.93;;;6.10;;
12433;SDS011;6281;49.038;8.372;2023-08-24T00:05:16;7.30;;;6.47;;
12433;SDS011;6281;49.038;8.372;2023-08-24T00:07:43;6.20;;;5.47;;
12433;SDS011;6281;49.038;8.372;2023-08-24T00:10:09;7.93;;;6.13;;
12433;SDS011;6281;49.038;8.372;2023-08-24T00:12:36;6.93;;;6.27;;
12433;SDS011;6281;49.038;8.372;2023-08-24T00:15:04;10.23;;;5.90;;
12433;SDS011;6281;49.038;8.372;2023-08-24T00:17:35;6.63;;;6.00;;
12433;SDS011;6281;49.038;8.372;2023-08-24T00:20:02;8.20;;;5.47;;
12433;SDS011;6281;49.038;8.372;2023-08-24T00:22:30;6.67;;;5.97;;
12433;SDS011;6281;49.038;8.372;2023-08-24T00:24:55;6.63;;;5.83;;
12433;SDS011;6281;49.038;8.372;2023-08-24T00:27:22;6.80;;;6.10;;
12433;SDS011;6281;49.038;8.372;2023-08-24T00:29:49;9.67;;;6.40;;
12433;SDS011;6281;49.038;8.372;2023-08-24T00:32:16;7.23;;;6.47;;
12433;SDS011;6281;49.038;8.372;2023-08-24T00:34:44;6.27;;;5.73;;
12433;SDS011;6281;49.038;8.372;2023-08-24T00:37:12;6.00;;;5.50;;
12433;SDS011;6281;49.038;8.372;2023-08-24T00:39:39;7.00;;;6.30;;
12433;SDS011;6281;49.038;8.372;2023-08-24T00:42:06;5.93;;;5.27;;
12433;SDS011;6281;49.038;8.372;2023-08-24T00:44:33;6.47;;;5.87;;
12433;SDS011;6281;49.038;8.372;2023-08-24T00:47:00;6.60;;;5.37;;
12433;SDS011;6281;49.038;8.372;2023-08-24T00:49:27;7.97;;;6.10;;
12433;SDS011;6281;49.038;8.372;2023-08-24T00:51:55;5.60;;;5.10;;
12433;SDS011;6281;49.038;8.372;2023-08-24T00:54:22;6.63;;;5.23;;
12433;SDS011;6281;49.038;8.372;2023-08-24T00:56:49;5.87;;;5.27;;
12433;SDS011;6281;49.038;8.372;2023-08-24T00:59:16;6.00;;;5.50;;
12433;SDS011;6281;49.038;8.372;2023-08-24T01:01:43;6.03;;;5.53;;
12433;SDS011;6281;49.038;8.372;2023-08-24T01:04:12;6.30;;;5.70;;
12433;SDS011;6281;49.038;8.372;2023-08-24T01:06:39;8.03;;;5.50;;
12433;SDS011;6281;49.038;8.372;2023-08-24T01:09:07;7.43;;;5.03;;
12433;SDS011;6281;49.038;8.372;2023-08-24T01:11:38;6.27;;;5.20;;
12433;SDS011;6281;49.038;8.372;2023-08-24T01:14:14;7.10;;;5.00;;
12433;SDS011;6281;49.038;8.372;2023-08-24T01:16:47;6.13;;;4.93;;
12433;SDS011;6281;49.038;8.372;2023-08-24T01:19:25;7.47;;;5.80;;
12433;SDS011;6281;49.038;8.372;2023-08-24T01:22:02;6.43;;;4.77;;
12433;SDS011;6281;49.038;8.372;2023-08-24T01:24:38;8.43;;;5.73;;
12433;SDS011;6281;49.038;8.372;2023-08-24T01:27:09;5.50;;;5.00;;
12433;SDS011;6281;49.038;8.372;2023-08-24T01:29:37;6.70;;;4.93;;
12433;SDS011;6281;49.038;8.372;2023-08-24T01:32:05;9.33;;;5.43;;
12433;SDS011;6281;49.038;8.372;2023-08-24T01:34:36;6.17;;;5.63;;
12433;SDS011;6281;49.038;8.372;2023-08-24T01:37:03;5.83;;;4.93;;
12433;SDS011;6281;49.038;8.372;2023-08-24T01:39:33;5.17;;;4.67;;
12433;SDS011;6281;49.038;8.372;2023-08-24T01:42:06;6.87;;;4.97;;
12433;SDS011;6281;49.038;8.372;2023-08-24T01:44:37;6.47;;;5.70;;
12433;SDS011;6281;49.038;8.372;2023-08-24T01:47:06;8.03;;;5.63;;
12433;SDS011;6281;49.038;8.372;2023-08-24T01:49:37;7.27;;;5.87;;
12433;SDS011;6281;49.038;8.372;2023-08-24T01:52:05;7.03;;;5.20;;
12433;SDS011;6281;49.038;8.372;2023-08-24T01:54:32;5.97;;;5.37;;
12433;SDS011;6281;49.038;8.372;2023-08-24T01:56:59;6.43;;;5.07;;
12433;SDS011;6281;49.038;8.372;2023-08-24T01:59:27;6.20;;;5.70;;
12433;SDS011;6281;49.038;8.372;2023-08-24T02:01:54;8.70;;;5.73;;
12433;SDS011;6281;49.038;8.372;2023-08-24T02:04:21;6.37;;;5.67;;
12433;SDS011;6281;49.038;8.372;2023-08-24T02:06:47;6.50;;;5.20;;
12433;SDS011;6281;49.038;8.372;2023-08-24T02:09:14;5.33;;;4.77;;
12433;SDS011;6281;49.038;8.372;2023-08-24T02:11:41;5.83;;;5.23;;
12433;SDS011;6281;49.038;8.372;2023-08-24T02:14:08;5.40;;;4.90;;
12433;SDS011;6281;49.038;8.372;2023-08-24T02:16:36;7.43;;;5.27;;
12433;SDS011;6281;49.038;8.372;2023-08-24T02:19:03;5.93;;;4.47;;
12433;SDS011;6281;49.038;8.372;2023-08-24T02:21:30;5.97;;;5.37;;
12433;SDS011;6281;49.038;8.372;2023-08-24T02:23:57;6.43;;;5.10;;
12433;SDS011;6281;49.038;8.372;2023-08-24T02:26:24;7.10;;;5.00;;
12433;SDS011;6281;49.038;8.372;2023-08-24T02:28:51;5.30;;;4.80;;
12433;SDS011;6281;49.038;8.372;2023-08-24T02:31:17;7.33;;;4.97;;
12433;SDS011;6281;49.038;8.372;2023-08-24T02:33:45;5.47;;;4.77;;
12433;SDS011;6281;49.038;8.372;2023-08-24T02:36:14;5.70;;;4.40;;
12433;SDS011;6281;49.038;8.372;2023-08-24T02:38:40;5.53;;;4.97;;
12433;SDS011;6281;49.038;8.372;2023-08-24T02:41:07;6.10;;;5.00;;
12433;SDS011;6281;49.038;8.372;2023-08-24T02:43:36;4.90;;;4.30;;
12433;SDS011;6281;49.038;8.372;2023-08-24T02:46:03;5.27;;;4.27;;
12433;SDS011;6281;49.038;8.372;2023-08-24T02:48:31;5.60;;;4.53;;
12433;SDS011;6281;49.038;8.372;2023-08-24T02:51:00;4.93;;;4.43;;
12433;SDS011;6281;49.038;8.372;2023-08-24T02:53:28;4.97;;;4.50;;
12433;SDS011;6281;49.038;8.372;2023-08-24T02:55:56;5.30;;;4.80;;
12433;SDS011;6281;49.038;8.372;2023-08-24T02:58:23;5.07;;;4.10;;
12433;SDS011;6281;49.038;8.372;2023-08-24T03:00:49;5.00;;;4.50;;
12433;SDS011;6281;49.038;8.372;2023-08-24T03:03:16;7.40;;;5.00;;
12433;SDS011;6281;49.038;8.372;2023-08-24T03:05:51;6.27;;;5.00;;
12433;SDS011;6281;49.038;8.372;2023-08-24T03:08:21;6.13;;;4.50;;
12433;SDS011;6281;49.038;8.372;2023-08-24T03:10:47;5.63;;;5.07;;
12433;SDS011;6281;49.038;8.372;2023-08-24T03:13:14;6.03;;;4.77;;
12433;SDS011;6281;49.038;8.372;2023-08-24T03:15:41;7.33;;;4.77;;
12433;SDS011;6281;49.038;8.372;2023-08-24T03:18:09;4.90;;;4.23;;
12433;SDS011;6281;49.038;8.372;2023-08-24T03:20:37;6.27;;;4.20;;
12433;SDS011;6281;49.038;8.372;2023-08-24T03:23:03;12.57;;;5.30;;
12433;SDS011;6281;49.038;8.372;2023-08-24T03:25:34;5.87;;;4.80;;
12433;SDS011;6281;49.038;8.372;2023-08-24T03:28:02;5.47;;;4.57;;
12433;SDS011;6281;49.038;8.372;2023-08-24T03:30:30;8.00;;;4.90;;
12433;SDS011;6281;49.038;8.372;2023-08-24T03:32:57;4.70;;;4.30;;
12433;SDS011;6281;49.038;8.372;2023-08-24T03:35:24;5.23;;;4.13;;
12433;SDS011;6281;49.038;8.372;2023-08-24T03:37:51;5.43;;;4.60;;
12433;SDS011;6281;49.038;8.372;2023-08-24T03:40:18;6.50;;;4.77;;
12433;SDS011;6281;49.038;8.372;2023-08-24T03:42:46;5.77;;;4.70;;
12433;SDS011;6281;49.038;8.372;2023-08-24T03:45:13;4.87;;;4.40;;
12433;SDS011;6281;49.038;8.372;2023-08-24T03:47:40;5.30;;;4.80;;
12433;SDS011;6281;49.038;8.372;2023-08-24T03:50:07;5.23;;;4.33;;
12433;SDS011;6281;49.038;8.372;2023-08-24T03:52:34;5.17;;;4.67;;
12433;SDS011;6281;49.038;8.372;2023-08-24T03:55:01;5.87;;;4.97;;
12433;SDS011;6281;49.038;8.372;2023-08-24T03:57:28;5.73;;;4.90;;
12433;SDS011;6281;49.038;8.372;2023-08-24T03:59:57;5.63;;;4.97;;
12433;SDS011;6281;49.038;8.372;2023-08-24T04:02:24;5.70;;;4.77;;
12433;SDS011;6281;49.038;8.372;2023-08-24T04:04:51;8.23;;;5.10;;
12433;SDS011;6281;49.038;8.372;2023-08-24T04:07:18;4.77;;;4.37;;
12433;SDS011;6281;49.038;8.372;2023-08-24T04:09:45;5.77;;;5.10;;
12433;SDS011;6281;49.038;8.372;2023-08-24T04:12:12;5.20;;;4.70;;
12433;SDS011;6281;49.038;8.372;2023-08-24T04:14:39;6.10;;;4.70;;
12433;SDS011;6281;49.038;8.372;2023-08-24T04:17:08;5.60;;;5.00;;
12433;SDS011;6281;49.038;8.372;2023-08-24T04:19:37;6.17;;;4.90;;
12433;SDS011;6281;49.038;8.372;2023-08-24T04:22:04;5.53;;;5.00;;
12433;SDS011;6281;49.038;8.372;2023-08-24T04:24:31;5.90;;;4.80;;
12433;SDS011;6281;49.038;8.372;2023-08-24T04:26:57;5.10;;;4.60;;
12433;SDS011;6281;49.038;8.372;2023-08-24T04:29:24;6.30;;;5.10;;
12433;SDS011;6281;49.038;8.372;2023-08-24T04:31:51;5.30;;;4.73;;
12433;SDS011;6281;49.038;8.372;2023-08-24T04:34:19;5.93;;;5.33;;
12433;SDS011;6281;49.038;8.372;2023-08-24T04:36:46;6.57;;;5.10;;
12433;SDS011;6281;49.038;8.372;2023-08-24T04:39:12;6.97;;;5.27;;
12433;SDS011;6281;49.038;8.372;2023-08-24T04:41:39;7.63;;;5.13;;
12433;SDS011;6281;49.038;8.372;2023-08-24T04:44:06;5.50;;;4.90;;
12433;SDS011;6281;49.038;8.372;2023-08-24T04:46:33;5.83;;;5.33;;
12433;SDS011;6281;49.038;8.372;2023-08-24T04:49:00;5.43;;;4.93;;
12433;SDS011;6281;49.038;8.372;2023-08-24T04:51:29;7.40;;;5.67;;
12433;SDS011;6281;49.038;8.372;2023-08-24T04:53:56;7.37;;;5.70;;
12433;SDS011;6281;49.038;8.372;2023-08-24T04:56:24;6.07;;;5.27;;
12433;SDS011;6281;49.038;8.372;2023-08-24T04:58:54;8.57;;;5.07;;
12433;SDS011;6281;49.038;8.372;2023-08-24T05:01:22;7.57;;;5.53;;
12433;SDS011;6281;49.038;8.372;2023-08-24T05:03:50;9.13;;;5.17;;
12433;SDS011;6281;49.038;8.372;2023-08-24T05:06:17;5.47;;;4.97;;
12433;SDS011;6281;49.038;8.372;2023-08-24T05:08:45;7.53;;;5.10;;
12433;SDS011;6281;49.038;8.372;2023-08-24T05:11:12;5.97;;;5.40;;
12433;SDS011;6281;49.038;8.372;2023-08-24T05:13:39;8.07;;;5.40;;
12433;SDS011;6281;49.038;8.372;2023-08-24T05:16:06;6.80;;;5.00;;
12433;SDS011;6281;49.038;8.372;2023-08-24T05:18:33;5.07;;;4.67;;
12433;SDS011;6281;49.038;8.372;2023-08-24T05:21:01;5.87;;;4.97;;
12433;SDS011;6281;49.038;8.372;2023-08-24T05:23:28;6.83;;;5.00;;
12433;SDS011;6281;49.038;8.372;2023-08-24T05:25:57;7.60;;;5.37;;
12433;SDS011;6281;49.038;8.372;2023-08-24T05:28:24;5.60;;;5.00;;
12433;SDS011;6281;49.038;8.372;2023-08-24T05:30:51;8.37;;;5.50;;
12433;SDS011;6281;49.038;8.372;2023-08-24T05:33:19;8.33;;;4.83;;
12433;SDS011;6281;49.038;8.372;2023-08-24T05:35:46;6.40;;;5.17;;
12433;SDS011;6281;49.038;8.372;2023-08-24T05:38:13;6.33;;;4.93;;
12433;SDS011;6281;49.038;8.372;2023-08-24T05:40:40;5.33;;;4.87;;
12433;SDS011;6281;49.038;8.372;2023-08-24T05:43:09;5.90;;;5.20;;
12433;SDS011;6281;49.038;8.372;2023-08-24T05:45:36;5.37;;;4.70;;
12433;SDS011;6281;49.038;8.372;2023-08-24T05:48:05;7.40;;;5.07;;
12433;SDS011;6281;49.038;8.372;2023-08-24T05:50:32;5.50;;;4.77;;
12433;SDS011;6281;49.038;8.372;2023-08-24T05:52:59;5.80;;;4.77;;
12433;SDS011;6281;49.038;8.372;2023-08-24T05:55:26;5.47;;;4.87;;
12433;SDS011;6281;49.038;8.372;2023-08-24T05:57:53;5.50;;;4.23;;
12433;SDS011;6281;49.038;8.372;2023-08-24T06:00:21;7.93;;;4.70;;
12433;SDS011;6281;49.038;8.372;2023-08-24T06:02:48;4.53;;;4.13;;
12433;SDS011;6281;49.038;8.372;2023-08-24T06:05:15;6.30;;;4.90;;
12433;SDS011;6281;49.038;8.372;2023-08-24T06:07:43;8.23;;;4.50;;
12433;SDS011;6281;49.038;8.372;2023-08-24T06:10:10;4.50;;;3.77;;
12433;SDS011;6281;49.038;8.372;2023-08-24T06:12:37;4.80;;;4.33;;
12433;SDS011;6281;49.038;8.372;2023-08-24T06:15:05;4.93;;;4.43;;
12433;SDS011;6281;49.038;8.372;2023-08-24T06:17:36;5.37;;;4.17;;
12433;SDS011;6281;49.038;8.372;2023-08-24T06:20:02;5.73;;;3.73;;
12433;SDS011;6281;49.038;8.372;2023-08-24T06:22:30;4.33;;;3.87;;
12433;SDS011;6281;49.038;8.372;2023-08-24T06:24:56;4.70;;;4.30;;
12433;SDS011;6281;49.038;8.372;2023-08-24T06:27:24;3.77;;;3.43;;
12433;SDS011;6281;49.038;8.372;2023-08-24T06:29:51;6.87;;;3.90;;
12433;SDS011;6281;49.038;8.372;2023-08-24T06:32:18;4.40;;;3.70;;
12433;SDS011;6281;49.038;8.372;2023-08-24T06:34:46;5.63;;;3.70;;
12433;SDS011;6281;49.038;8.372;2023-08-24T06:37:13;4.83;;;3.63;;
12433;SDS011;6281;49.038;8.372;2023-08-24T06:39:39;4.13;;;3.00;;
12433;SDS011;6281;49.038;8.372;2023-08-24T06:42:06;3.80;;;3.23;;
12433;SDS011;6281;49.038;8.372;2023-08-24T06:44:33;5.00;;;3.17;;
12433;SDS011;6281;49.038;8.372;2023-08-24T06:47:00;6.23;;;3.30;;
12433;SDS011;6281;49.038;8.372;2023-08-24T06:49:26;3.47;;;3.17;;
12433;SDS011;6281;49.038;8.372;2023-08-24T06:51:54;4.87;;;3.43;;
12433;SDS011;6281;49.038;8.372;2023-08-24T06:54:21;4.20;;;2.90;;
12433;SDS011;6281;49.038;8.372;2023-08-24T06:56:48;3.43;;;2.90;;
12433;SDS011;6281;49.038;8.372;2023-08-24T06:59:15;4.90;;;2.77;;
12433;SDS011;6281;49.038;8.372;2023-08-24T07:01:42;9.13;;;3.70;;
12433;SDS011;6281;49.038;8.372;2023-08-24T07:04:08;4.23;;;3.20;;
12433;SDS011;6281;49.038;8.372;2023-08-24T07:06:35;3.40;;;3.10;;
12433;SDS011;6281;49.038;8.372;2023-08-24T07:09:03;3.67;;;2.87;;
12433;SDS011;6281;49.038;8.372;2023-08-24T07:11:32;4.50;;;2.70;;
12433;SDS011;6281;49.038;8.372;2023-08-24T07:13:59;5.83;;;2.93;;
12433;SDS011;6281;49.038;8.372;2023-08-24T07:16:26;4.57;;;3.10;;
12433;SDS011;6281;49.038;8.372;2023-08-24T07:18:52;3.80;;;3.03;;
12433;SDS011;6281;49.038;8.372;2023-08-24T07:21:19;2.57;;;2.37;;
12433;SDS011;6281;49.038;8.372;2023-08-24T07:23:46;4.63;;;3.53;;
12433;SDS011;6281;49.038;8.372;2023-08-24T07:26:15;3.50;;;2.93;;
12433;SDS011;6281;49.038;8.372;2023-08-24T07:28:41;5.13;;;3.10;;
12433;SDS011;6281;49.038;8.372;2023-08-24T07:31:08;3.37;;;3.03;;
12433;SDS011;6281;49.038;8.372;2023-08-24T07:33:36;5.03;;;3.10;;
12433;SDS011;6281;49.038;8.372;2023-08-24T07:36:04;3.93;;;3.30;;
12433;SDS011;6281;49.038;8.372;2023-08-24T07:38:31;5.17;;;3.10;;
12433;SDS011;6281;49.038;8.372;2023-08-24T07:40:58;4.07;;;3.20;;
12433;SDS011;6281;49.038;8.372;2023-08-24T07:43:26;3.10;;;2.80;;
12433;SDS011;6281;49.038;8.372;2023-08-24T07:45:53;5.13;;;3.00;;
12433;SDS011;6281;49.038;8.372;2023-08-24T07:48:20;3.13;;;2.83;;
12433;SDS011;6281;49.038;8.372;2023-08-24T07:50:47;5.17;;;3.20;;
12433;SDS011;6281;49.038;8.372;2023-08-24T07:53:13;5.27;;;3.17;;
12433;SDS011;6281;49.038;8.372;2023-08-24T07:55:40;6.40;;;2.70;;
12433;SDS011;6281;49.038;8.372;2023-08-24T07:58:08;4.93;;;2.90;;
12433;SDS011;6281;49.038;8.372;2023-08-24T08:00:36;4.33;;;2.80;;
12433;SDS011;6281;49.038;8.372;2023-08-24T08:03:03;5.03;;;3.07;;
12433;SDS011;6281;49.038;8.372;2023-08-24T08:05:30;5.33;;;2.60;;
12433;SDS011;6281;49.038;8.372;2023-08-24T08:07:57;3.50;;;3.20;;
12433;SDS011;6281;49.038;8.372;2023-08-24T08:10:23;4.33;;;2.90;;
12433;SDS011;6281;49.038;8.372;2023-08-24T08:12:50;6.20;;;2.80;;
12433;SDS011;6281;49.038;8.372;2023-08-24T08:15:17;5.80;;;3.20;;
12433;SDS011;6281;49.038;8.372;2023-08-24T08:17:45;3.57;;;3.00;;
12433;SDS011;6281;49.038;8.372;2023-08-24T08:20:13;4.27;;;2.90;;
12433;SDS011;6281;49.038;8.372;2023-08-24T08:22:41;3.33;;;2.90;;
12433;SDS011;6281;49.038;8.372;2023-08-24T08:25:08;3.67;;;2.70;;
12433;SDS011;6281;49.038;8.372;2023-08-24T08:27:34;3.03;;;2.70;;
12433;SDS011;6281;49.038;8.372;2023-08-24T08:30:01;8.07;;;3.00;;
12433;SDS011;6281;49.038;8.372;2023-08-24T08:32:30;5.93;;;3.50;;
12433;SDS011;6281;49.038;8.372;2023-08-24T08:34:58;7.72;;;2.97;;
12433;SDS011;6281;49.038;8.372;2023-08-24T08:37:26;4.75;;;3.40;;
12433;SDS011;6281;49.038;8.372;2023-08-24T08:39:52;5.32;;;3.00;;
12433;SDS011;6281;49.038;8.372;2023-08-24T08:42:19;4.32;;;3.03;;
12433;SDS011;6281;49.038;8.372;2023-08-24T08:44:46;4.07;;;3.00;;
12433;SDS011;6281;49.038;8.372;2023-08-24T08:47:13;3.97;;;2.65;;
12433;SDS011;6281;49.038;8.372;2023-08-24T08:49:40;4.72;;;3.05;;
12433;SDS011;6281;49.038;8.372;2023-08-24T08:54:40;4.78;;;3.03;;
12433;SDS011;6281;49.038;8.372;2023-08-24T08:57:07;6.18;;;2.80;;
12433;SDS011;6281;49.038;8.372;2023-08-24T08:59:34;5.22;;;2.92;;
12433;SDS011;6281;49.038;8.372;2023-08-24T09:02:02;4.80;;;2.53;;
12433;SDS011;6281;49.038;8.372;2023-08-24T09:04:29;2.85;;;2.50;;
12433;SDS011;6281;49.038;8.372;2023-08-24T09:06:57;3.83;;;2.70;;
12433;SDS011;6281;49.038;8.372;2023-08-24T09:09:27;3.55;;;2.47;;
12433;SDS011;6281;49.038;8.372;2023-08-24T09:11:54;3.05;;;2.40;;
12433;SDS011;6281;49.038;8.372;2023-08-24T09:14:21;4.32;;;2.60;;
12433;SDS011;6281;49.038;8.372;2023-08-24T09:16:47;2.70;;;2.50;;
12433;SDS011;6281;49.038;8.372;2023-08-24T09:19:15;6.22;;;2.63;;
12433;SDS011;6281;49.038;8.372;2023-08-24T09:21:42;3.53;;;2.58;;
12433;SDS011;6281;49.038;8.372;2023-08-24T09:24:09;3.38;;;2.80;;
12433;SDS011;6281;49.038;8.372;2023-08-24T09:26:39;3.78;;;3.20;;
12433;SDS011;6281;49.038;8.372;2023-08-24T09:29:10;3.05;;;2.75;;
12433;SDS011;6281;49.038;8.372;2023-08-24T09:31:39;3.00;;;2.70;;
12433;SDS011;6281;49.038;8.372;2023-08-24T09:34:06;5.57;;;2.63;;
12433;SDS011;6281;49.038;8.372;2023-08-24T09:36:33;5.55;;;2.70;;
12433;SDS011;6281;49.038;8.372;2023-08-24T09:39:01;5.35;;;2.80;;
12433;SDS011;6281;49.038;8.372;2023-08-24T09:41:40;3.83;;;3.00;;
12433;SDS011;6281;49.038;8.372;2023-08-24T09:44:08;3.05;;;2.80;;
12433;SDS011;6281;49.038;8.372;2023-08-24T09:46:35;6.95;;;3.22;;
12433;SDS011;6281;49.038;8.372;2023-08-24T09:49:03;3.55;;;2.70;;
12433;SDS011;6281;49.038;8.372;2023-08-24T09:54:28;3.28;;;2.97;;
12433;SDS011;6281;49.038;8.372;2023-08-24T09:57:01;5.80;;;3.20;;
12433;SDS011;6281;49.038;8.372;2023-08-24T09:59:29;3.83;;;3.30;;
12433;SDS011;6281;49.038;8.372;2023-08-24T10:01:58;4.60;;;3.30;;
12433;SDS011;6281;49.038;8.372;2023-08-24T10:04:28;3.83;;;3.42;;
12433;SDS011;6281;49.038;8.372;2023-08-24T10:06:59;5.22;;;3.25;;
12433;SDS011;6281;49.038;8.372;2023-08-24T10:09:31;3.70;;;3.30;;
12433;SDS011;6281;49.038;8.372;2023-08-24T10:12:03;3.33;;;3.03;;
12433;SDS011;6281;49.038;8.372;2023-08-24T10:14:36;4.15;;;3.67;;
12433;SDS011;6281;49.038;8.372;2023-08-24T10:17:10;5.28;;;2.90;;
12433;SDS011;6281;49.038;8.372;2023-08-24T10:19:38;3.78;;;3.42;;
12433;SDS011;6281;49.038;8.372;2023-08-24T10:22:05;3.40;;;3.10;;
12433;SDS011;6281;49.038;8.372;2023-08-24T10:24:34;3.10;;;2.80;;
12433;SDS011;6281;49.038;8.372;2023-08-24T10:27:03;3.30;;;3.00;;
12433;SDS011;6281;49.038;8.372;2023-08-24T10:29:31;4.53;;;3.13;;
12433;SDS011;6281;49.038;8.372;2023-08-24T10:31:58;3.40;;;3.10;;
12433;SDS011;6281;49.038;8.372;2023-08-24T10:34:25;4.60;;;3.20;;
12433;SDS011;6281;49.038;8.372;2023-08-24T10:36:51;3.80;;;3.50;;
12433;SDS011;6281;49.038;8.372;2023-08-24T10:39:18;3.92;;;3.45;;
12433;SDS011;6281;49.038;8.372;2023-08-24T10:41:53;3.92;;;3.05;;
12433;SDS011;6281;49.038;8.372;2023-08-24T10:44:24;4.15;;;3.85;;
12433;SDS011;6281;49.038;8.372;2023-08-24T10:47:05;4.18;;;3.25;;
12433;SDS011;6281;49.038;8.372;2023-08-24T10:49:33;4.43;;;3.53;;
12433;SDS011;6281;49.038;8.372;2023-08-24T10:54:48;3.80;;;3.38;;
12433;SDS011;6281;49.038;8.372;2023-08-24T10:57:19;4.90;;;3.70;;
12433;SDS011;6281;49.038;8.372;2023-08-24T11:00:02;3.88;;;3.58;;
12433;SDS011;6281;49.038;8.372;2023-08-24T11:02:40;3.75;;;3.33;;
12433;SDS011;6281;49.038;8.372;2023-08-24T11:05:14;5.15;;;3.80;;
12433;SDS011;6281;49.038;8.372;2023-08-24T11:07:49;4.05;;;3.70;;
12433;SDS011;6281;49.038;8.372;2023-08-24T11:10:18;4.68;;;3.67;;
12433;SDS011;6281;49.038;8.372;2023-08-24T11:13:04;6.22;;;3.70;;
12433;SDS011;6281;49.038;8.372;2023-08-24T11:15:38;4.60;;;3.75;;
12433;SDS011;6281;49.038;8.372;2023-08-24T11:18:19;4.60;;;3.33;;
12433;SDS011;6281;49.038;8.372;2023-08-24T11:20:50;3.83;;;3.53;;
12433;SDS011;6281;49.038;8.372;2023-08-24T11:23:19;3.78;;;3.33;;
12433;SDS011;6281;49.038;8.372;2023-08-24T11:25:48;5.30;;;3.60;;
12433;SDS011;6281;49.038;8.372;2023-08-24T11:28:20;3.35;;;3.05;;
12433;SDS011;6281;49.038;8.372;2023-08-24T11:30:48;4.25;;;3.45;;
12433;SDS011;6281;49.038;8.372;2023-08-24T11:33:16;4.03;;;3.60;;
12433;SDS011;6281;49.038;8.372;2023-08-24T11:35:44;4.00;;;3.67;;
12433;SDS011;6281;49.038;8.372;2023-08-24T11:38:11;4.22;;;3.83;;
12433;SDS011;6281;49.038;8.372;2023-08-24T11:40:39;3.75;;;3.45;;
12433;SDS011;6281;49.038;8.372;2023-08-24T11:43:06;5.25;;;4.00;;
12433;SDS011;6281;49.038;8.372;2023-08-24T11:45:33;6.13;;;3.97;;
12433;SDS011;6281;49.038;8.372;2023-08-24T11:48:03;4.97;;;3.88;;
12433;SDS011;6281;49.038;8.372;2023-08-24T11:50:31;4.78;;;4.18;;
12433;SDS011;6281;49.038;8.372;2023-08-24T11:52:59;5.63;;;4.30;;
12433;SDS011;6281;49.038;8.372;2023-08-24T11:55:27;5.32;;;3.90;;
12433;SDS011;6281;49.038;8.372;2023-08-24T11:57:54;4.43;;;4.03;;
12433;SDS011;6281;49.038;8.372;2023-08-24T12:00:21;4.05;;;3.65;;
12433;SDS011;6281;49.038;8.372;2023-08-24T12:02:49;5.15;;;3.90;;
12433;SDS011;6281;49.038;8.372;2023-08-24T12:05:21;3.80;;;3.50;;
12433;SDS011;6281;49.038;8.372;2023-08-24T12:07:49;4.32;;;3.85;;
12433;SDS011;6281;49.038;8.372;2023-08-24T12:10:18;5.93;;;4.05;;
12433;SDS011;6281;49.038;8.372;2023-08-24T12:12:45;6.35;;;4.30;;
12433;SDS011;6281;49.038;8.372;2023-08-24T12:15:17;7.75;;;4.50;;
12433;SDS011;6281;49.038;8.372;2023-08-24T12:17:45;6.60;;;4.38;;
12433;SDS011;6281;49.038;8.372;2023-08-24T12:20:17;4.85;;;4.45;;
12433;SDS011;6281;49.038;8.372;2023-08-24T12:22:51;4.70;;;4.30;;
12433;SDS011;6281;49.038;8.372;2023-08-24T12:25:20;5.18;;;4.65;;
12433;SDS011;6281;49.038;8.372;2023-08-24T12:27:48;4.70;;;4.20;;
12433;SDS011;6281;49.038;8.372;2023-08-24T12:30:15;6.22;;;4.97;;
12433;SDS011;6281;49.038;8.372;2023-08-24T12:32:42;5.15;;;4.65;;
12433;SDS011;6281;49.038;8.372;2023-08-24T12:35:10;5.68;;;4.90;;
12433;SDS011;6281;49.038;8.372;2023-08-24T12:37:37;4.78;;;4.38;;
12433;SDS011;6281;49.038;8.372;2023-08-24T12:40:05;4.90;;;4.43;;
12433;SDS011;6281;49.038;8.372;2023-08-24T12:42:33;5.28;;;4.78;;
12433;SDS011;6281;49.038;8.372;2023-08-24T12:45:00;5.00;;;3.83;;
12433;SDS011;6281;49.038;8.372;2023-08-24T12:47:29;4.75;;;4.15;;
12433;SDS011;6281;49.038;8.372;2023-08-24T12:49:56;7.10;;;4.47;;
12433;SDS011;6281;49.038;8.372;2023-08-24T12:55:26;6.35;;;4.72;;
12433;SDS011;6281;49.038;8.372;2023-08-24T12:57:53;5.55;;;5.05;;
12433;SDS011;6281;49.038;8.372;2023-08-24T13:00:20;4.45;;;4.10;;
12433;SDS011;6281;49.038;8.372;2023-08-24T13:02:47;5.25;;;4.57;;
12433;SDS011;6281;49.038;8.372;2023-08-24T13:05:14;7.13;;;4.40;;
12433;SDS011;6281;49.038;8.372;2023-08-24T13:07:41;5.10;;;4.60;;
12433;SDS011;6281;49.038;8.372;2023-08-24T13:10:09;5.47;;;4.63;;
12433;SDS011;6281;49.038;8.372;2023-08-24T13:12:38;4.72;;;4.22;;
12433;SDS011;6281;49.038;8.372;2023-08-24T13:15:05;5.45;;;4.07;;
12433;SDS011;6281;49.038;8.372;2023-08-24T13:17:32;4.80;;;4.20;;
12433;SDS011;6281;49.038;8.372;2023-08-24T13:19:59;4.78;;;4.38;;
12433;SDS011;6281;49.038;8.372;2023-08-24T13:22:26;5.15;;;4.75;;
12433;SDS011;6281;49.038;8.372;2023-08-24T13:24:53;6.35;;;4.32;;
12433;SDS011;6281;49.038;8.372;2023-08-24T13:27:20;5.15;;;4.65;;
12433;SDS011;6281;49.038;8.372;2023-08-24T13:29:49;4.88;;;4.40;;
12433;SDS011;6281;49.038;8.372;2023-08-24T13:32:15;8.45;;;4.63;;
12433;SDS011;6281;49.038;8.372;2023-08-24T13:34:43;5.97;;;4.22;;
12433;SDS011;6281;49.038;8.372;2023-08-24T13:37:10;4.85;;;4.35;;
12433;SDS011;6281;49.038;8.372;2023-08-24T13:39:38;4.50;;;4.10;;
12433;SDS011;6281;49.038;8.372;2023-08-24T13:42:05;6.45;;;4.07;;
12433;SDS011;6281;49.038;8.372;2023-08-24T13:44:31;6.32;;;4.60;;
12433;SDS011;6281;49.038;8.372;2023-08-24T13:46:59;5.32;;;4.13;;
12433;SDS011;6281;49.038;8.372;2023-08-24T13:49:26;4.75;;;4.32;;
12433;SDS011;6281;49.038;8.372;2023-08-24T13:51:53;5.38;;;4.82;;
12433;SDS011;6281;49.038;8.372;2023-08-24T13:54:20;4.97;;;4.45;;
12433;SDS011;6281;49.038;8.372;2023-08-24T13:56:47;5.03;;;4.53;;
12433;SDS011;6281;49.038;8.372;2023-08-24T13:59:15;7.05;;;4.53;;
12433;SDS011;6281;49.038;8.372;2023-08-24T14:01:42;5.90;;;4.75;;
12433;SDS011;6281;49.038;8.372;2023-08-24T14:04:10;5.38;;;4.88;;
12433;SDS011;6281;49.038;8.372;2023-08-24T14:06:37;6.88;;;5.07;;
12433;SDS011;6281;49.038;8.372;2023-08-24T14:09:04;4.70;;;4.30;;
12433;SDS011;6281;49.038;8.372;2023-08-24T14:11:32;5.10;;;4.57;;
12433;SDS011;6281;49.038;8.372;2023-08-24T14:13:59;8.77;;;5.55;;
12433;SDS011;6281;49.038;8.372;2023-08-24T14:16:26;9.15;;;6.32;;
12433;SDS011;6281;49.038;8.372;2023-08-24T14:18:52;11.13;;;5.75;;
12433;SDS011;6281;49.038;8.372;2023-08-24T14:21:21;9.93;;;6.43;;
12433;SDS011;6281;49.038;8.372;2023-08-24T14:23:49;11.80;;;8.50;;
12433;SDS011;6281;49.038;8.372;2023-08-24T14:26:16;8.25;;;6.28;;
12433;SDS011;6281;49.038;8.372;2023-08-24T14:28:47;7.57;;;6.73;;
12433;SDS011;6281;49.038;8.372;2023-08-24T14:31:14;8.20;;;6.90;;
12433;SDS011;6281;49.038;8.372;2023-08-24T14:33:41;7.60;;;6.80;;
12433;SDS011;6281;49.038;8.372;2023-08-24T14:36:09;8.17;;;7.37;;
12433;SDS011;6281;49.038;8.372;2023-08-24T14:38:39;10.03;;;7.27;;
12433;SDS011;6281;49.038;8.372;2023-08-24T14:41:06;8.75;;;7.10;;
12433;SDS011;6281;49.038;8.372;2023-08-24T14:43:33;11.32;;;7.32;;
12433;SDS011;6281;49.038;8.372;2023-08-24T14:46:00;9.52;;;7.05;;
12433;SDS011;6281;49.038;8.372;2023-08-24T14:48:27;8.38;;;6.82;;
12433;SDS011;6281;49.038;8.372;2023-08-24T14:50:54;8.13;;;7.40;;
12433;SDS011;6281;49.038;8.372;2023-08-24T14:53:21;8.32;;;7.45;;
12433;SDS011;6281;49.038;8.372;2023-08-24T14:55:50;9.40;;;8.50;;
12433;SDS011;6281;49.038;8.372;2023-08-24T14:58:18;11.45;;;9.93;;
12433;SDS011;6281;49.038;8.372;2023-08-24T15:00:46;11.57;;;10.38;;
12433;SDS011;6281;49.038;8.372;2023-08-24T15:03:13;9.27;;;8.38;;
12433;SDS011;6281;49.038;8.372;2023-08-24T15:05:41;9.15;;;7.95;;
12433;SDS011;6281;49.038;8.372;2023-08-24T15:08:09;8.57;;;7.78;;
12433;SDS011;6281;49.038;8.372;2023-08-24T15:10:36;9.30;;;7.10;;
12433;SDS011;6281;49.038;8.372;2023-08-24T15:13:04;9.75;;;7.28;;
12433;SDS011;6281;49.038;8.372;2023-08-24T15:15:34;7.68;;;6.32;;